createdAt,value
2023-04-29T00:01:16.178Z,18.10
2023-04-29T00:03:45.421Z,18.10
2023-04-29T00:06:13.283Z,18.08
2023-04-29T00:08:41.078Z,18.08
2023-04-29T00:11:08.763Z,18.05
2023-04-29T00:13:36.492Z,18.04
2023-04-29T00:16:04.288Z,18.03
2023-04-29T00:18:32.397Z,18.00
2023-04-29T00:21:02.211Z,17.99
2023-04-29T00:23:29.871Z,17.97
2023-04-29T00:25:57.503Z,17.96
2023-04-29T00:28:25.173Z,17.95
2023-04-29T00:30:53.468Z,17.94
2023-04-29T00:33:21.306Z,17.92
2023-04-29T00:35:49.124Z,17.92
2023-04-29T00:38:18.173Z,17.90
2023-04-29T00:40:46.355Z,17.88
2023-04-29T00:43:14.091Z,17.88
2023-04-29T00:45:41.854Z,17.87
2023-04-29T00:48:09.652Z,17.86
2023-04-29T00:50:37.898Z,17.83
2023-04-29T00:53:05.999Z,17.82
2023-04-29T00:55:36.718Z,17.81
2023-04-29T00:58:04.360Z,17.80
2023-04-29T01:00:32.427Z,17.79
2023-04-29T01:03:00.538Z,17.80
2023-04-29T01:05:28.429Z,17.77
2023-04-29T01:08:13.851Z,17.76
2023-04-29T01:10:50.518Z,17.75
2023-04-29T01:13:25.490Z,17.74
2023-04-29T01:16:02.144Z,17.73
2023-04-29T01:18:34.047Z,17.71
2023-04-29T01:21:01.922Z,17.71
2023-04-29T01:23:31.276Z,17.69
2023-04-29T01:25:59.684Z,17.69
2023-04-29T01:28:41.904Z,17.68
2023-04-29T01:31:16.595Z,17.67
2023-04-29T01:33:53.554Z,17.66
2023-04-29T01:36:32.711Z,17.64
2023-04-29T01:39:10.877Z,17.63
2023-04-29T01:41:44.270Z,17.61
2023-04-29T01:44:17.833Z,17.61
2023-04-29T01:46:54.964Z,17.59
2023-04-29T01:49:22.907Z,17.60
2023-04-29T01:51:50.623Z,17.59
2023-04-29T01:54:19.772Z,17.58
2023-04-29T01:56:47.461Z,17.56
2023-04-29T01:59:15.316Z,17.57
2023-04-29T02:01:42.931Z,17.57
2023-04-29T02:04:10.546Z,17.55
2023-04-29T02:06:38.589Z,17.56
2023-04-29T02:09:06.381Z,17.53
2023-04-29T02:11:35.408Z,17.52
2023-04-29T02:14:03.011Z,17.51
2023-04-29T02:16:31.154Z,17.50
2023-04-29T02:18:58.735Z,17.49
2023-04-29T02:21:27.089Z,17.49
2023-04-29T02:23:55.077Z,17.49
2023-04-29T02:26:23.780Z,17.48
2023-04-29T02:28:53.511Z,17.47
2023-04-29T02:31:21.214Z,17.47
2023-04-29T02:33:48.974Z,17.46
2023-04-29T02:36:17.696Z,17.45
2023-04-29T02:38:45.407Z,17.45
2023-04-29T02:41:17.672Z,17.44
2023-04-29T02:43:45.391Z,17.45
2023-04-29T02:46:14.445Z,17.43
2023-04-29T02:48:42.087Z,17.41
2023-04-29T02:51:09.713Z,17.41
2023-04-29T02:53:37.357Z,17.40
2023-04-29T02:56:06.127Z,17.39
2023-04-29T02:58:33.802Z,17.38
2023-04-29T03:01:01.461Z,17.36
2023-04-29T03:03:30.574Z,17.36
2023-04-29T03:05:58.212Z,17.35
2023-04-29T03:08:26.040Z,17.34
2023-04-29T03:10:53.823Z,17.33
2023-04-29T03:13:21.526Z,17.31
2023-04-29T03:15:49.196Z,17.31
2023-04-29T03:18:16.865Z,17.29
2023-04-29T03:20:45.871Z,17.29
2023-04-29T03:23:13.515Z,17.29
2023-04-29T03:25:41.692Z,17.27
2023-04-29T03:28:09.656Z,17.28
2023-04-29T03:30:37.715Z,17.25
2023-04-29T03:33:05.707Z,17.24
2023-04-29T03:35:33.967Z,17.24
2023-04-29T03:38:02.930Z,17.23
2023-04-29T03:40:30.723Z,17.23
2023-04-29T03:42:58.483Z,17.20
2023-04-29T03:45:26.246Z,17.20
2023-04-29T03:47:54.812Z,17.19
2023-04-29T03:50:22.573Z,17.18
2023-04-29T03:52:50.555Z,17.19
2023-04-29T03:55:19.714Z,17.18
2023-04-29T03:57:47.305Z,17.17
2023-04-29T04:00:15.429Z,17.17
2023-04-29T04:02:43.306Z,17.16
2023-04-29T04:05:11.743Z,17.15
2023-04-29T04:07:39.522Z,17.14
2023-04-29T04:10:07.928Z,17.14
2023-04-29T04:12:36.972Z,17.13
2023-04-29T04:15:05.095Z,17.11
2023-04-29T04:17:32.794Z,17.10
2023-04-29T04:20:00.491Z,17.11
2023-04-29T04:22:28.224Z,17.09
2023-04-29T04:24:56.056Z,17.09
2023-04-29T04:27:24.245Z,17.08
2023-04-29T04:29:56.186Z,17.09
2023-04-29T04:32:24.072Z,17.05
2023-04-29T04:34:52.178Z,17.03
2023-04-29T04:37:19.857Z,17.03
2023-04-29T04:39:47.903Z,17.04
2023-04-29T04:42:15.668Z,17.03
2023-04-29T04:44:43.509Z,17.03
2023-04-29T04:47:12.623Z,17.03
2023-04-29T04:49:40.332Z,17.02
2023-04-29T04:52:07.975Z,17.03
2023-04-29T04:54:35.555Z,17.01
2023-04-29T04:57:06.316Z,17.01
2023-04-29T04:59:34.691Z,17.01
2023-04-29T05:02:02.335Z,17.02
2023-04-29T05:04:31.515Z,17.01
2023-04-29T05:06:59.223Z,16.98
2023-04-29T05:09:27.031Z,16.98
2023-04-29T05:11:54.926Z,16.99
2023-04-29T05:14:22.555Z,16.98
2023-04-29T05:16:51.507Z,16.99
2023-04-29T05:19:19.238Z,17.00
2023-04-29T05:21:48.274Z,17.04
2023-04-29T05:24:16.335Z,17.09
2023-04-29T05:26:44.309Z,17.13
2023-04-29T05:29:12.117Z,17.16
2023-04-29T05:31:39.800Z,17.20
2023-04-29T05:34:07.379Z,17.24
2023-04-29T05:36:35.034Z,17.27
2023-04-29T05:39:04.027Z,17.30
2023-04-29T05:41:31.676Z,17.32
2023-04-29T05:43:59.398Z,17.35
2023-04-29T05:46:27.050Z,17.38
2023-04-29T05:48:54.692Z,17.43
2023-04-29T05:51:22.275Z,17.45
2023-04-29T05:53:49.916Z,17.48
2023-04-29T05:56:19.299Z,17.50
2023-04-29T05:58:47.118Z,17.52
2023-04-29T06:01:14.898Z,17.55
2023-04-29T06:03:42.920Z,17.57
2023-04-29T06:06:11.697Z,17.59
2023-04-29T06:08:39.700Z,17.61
2023-04-29T06:11:07.369Z,17.63
2023-04-29T06:13:36.423Z,17.64
2023-04-29T06:16:04.626Z,17.67
2023-04-29T06:18:32.336Z,17.68
2023-04-29T06:21:00.034Z,17.69
2023-04-29T06:23:27.739Z,17.71
2023-04-29T06:25:55.669Z,17.72
2023-04-29T06:28:23.502Z,17.72
2023-04-29T06:30:52.607Z,17.73
2023-04-29T06:33:20.300Z,17.75
2023-04-29T06:35:47.939Z,17.74
2023-04-29T06:38:15.656Z,17.74
2023-04-29T06:40:43.521Z,17.76
2023-04-29T06:43:11.317Z,17.76
2023-04-29T06:45:39.086Z,17.78
2023-04-29T06:48:08.569Z,17.79
2023-04-29T06:50:36.394Z,17.79
2023-04-29T06:53:04.151Z,17.79
2023-04-29T06:55:31.866Z,17.80
2023-04-29T06:57:59.592Z,17.81
2023-04-29T07:00:27.236Z,17.81
2023-04-29T07:02:55.827Z,17.82
2023-04-29T07:05:25.323Z,17.85
2023-04-29T07:07:53.090Z,17.84
2023-04-29T07:10:20.812Z,17.85
2023-04-29T07:12:48.622Z,17.86
2023-04-29T07:15:16.446Z,17.86
2023-04-29T07:17:44.276Z,17.88
2023-04-29T07:20:13.188Z,17.89
2023-04-29T07:22:42.293Z,17.90
2023-04-29T07:25:11.107Z,17.90
2023-04-29T07:27:38.996Z,17.91
2023-04-29T07:30:08.039Z,17.92
2023-04-29T07:32:35.855Z,17.93
2023-04-29T07:35:03.779Z,17.94
2023-04-29T07:37:31.504Z,17.95
2023-04-29T07:40:00.953Z,17.95
2023-04-29T07:42:28.674Z,17.96
2023-04-29T07:44:56.421Z,17.98
2023-04-29T07:47:24.291Z,17.99
2023-04-29T07:49:52.725Z,17.99
2023-04-29T07:52:20.417Z,18.00
2023-04-29T07:54:48.140Z,18.01
2023-04-29T07:57:17.354Z,18.03
2023-04-29T07:59:45.146Z,18.04
2023-04-29T08:02:13.848Z,18.05
2023-04-29T08:04:42.660Z,18.06
2023-04-29T08:07:10.730Z,18.11
2023-04-29T08:09:38.650Z,18.15
2023-04-29T08:12:06.769Z,18.19
2023-04-29T08:14:35.840Z,18.21
2023-04-29T08:17:03.618Z,18.23
2023-04-29T08:19:31.689Z,18.26
2023-04-29T08:22:01.139Z,18.28
2023-04-29T08:24:29.718Z,18.31
2023-04-29T08:26:58.845Z,18.33
2023-04-29T08:29:26.596Z,18.36
2023-04-29T08:31:56.283Z,18.38
2023-04-29T08:34:24.447Z,18.38
2023-04-29T08:36:52.140Z,18.40
2023-04-29T08:39:20.715Z,18.42
2023-04-29T08:41:51.532Z,18.43
2023-04-29T08:44:19.701Z,18.44
2023-04-29T08:46:48.429Z,18.44
2023-04-29T08:49:17.924Z,18.46
2023-04-29T08:51:45.754Z,18.47
2023-04-29T08:54:13.814Z,18.48
2023-04-29T08:56:45.896Z,18.49
2023-04-29T08:59:16.400Z,18.52
2023-04-29T09:01:49.766Z,18.51
2023-04-29T09:04:30.249Z,18.51
2023-04-29T09:06:59.375Z,18.52
2023-04-29T09:09:27.501Z,18.52
2023-04-29T09:11:55.887Z,18.53
2023-04-29T09:14:24.675Z,18.55
2023-04-29T09:16:52.778Z,18.57
2023-04-29T09:19:35.377Z,18.54
2023-04-29T09:22:05.149Z,18.55
2023-04-29T09:24:33.181Z,18.56
2023-04-29T09:27:03.243Z,18.57
2023-04-29T09:29:33.055Z,18.59
2023-04-29T09:32:01.281Z,18.61
2023-04-29T09:34:35.900Z,18.59
2023-04-29T09:37:03.963Z,18.56
2023-04-29T09:39:40.923Z,18.51
2023-04-29T09:42:09.976Z,18.44
2023-04-29T09:44:38.189Z,18.43
2023-04-29T09:47:07.643Z,18.43
2023-04-29T09:49:39.407Z,18.42
2023-04-29T09:52:09.759Z,18.41
2023-04-29T09:54:39.853Z,18.38
2023-04-29T09:57:09.996Z,18.37
2023-04-29T09:59:39.990Z,18.38
2023-04-29T10:02:15.435Z,18.41
2023-04-29T10:04:47.374Z,18.44
2023-04-29T10:07:17.676Z,18.44
2023-04-29T10:09:48.875Z,18.46
2023-04-29T10:12:19.485Z,18.47
2023-04-29T10:14:53.181Z,18.48
2023-04-29T10:17:31.254Z,18.49
2023-04-29T10:20:07.518Z,18.50
2023-04-29T10:22:42.190Z,18.51
2023-04-29T10:25:13.449Z,18.51
2023-04-29T10:27:45.207Z,18.51
2023-04-29T10:30:15.309Z,18.51
2023-04-29T10:32:51.124Z,18.51
2023-04-29T10:35:25.624Z,18.50
2023-04-29T10:37:55.113Z,18.50
2023-04-29T10:40:29.763Z,18.50
2023-04-29T10:42:59.613Z,18.48
2023-04-29T10:45:31.260Z,18.45
2023-04-29T10:48:16.581Z,18.37
2023-04-29T10:51:05.562Z,18.34
2023-04-29T10:53:33.996Z,18.31
2023-04-29T10:56:07.347Z,18.28
2023-04-29T10:58:41.206Z,18.24
2023-04-29T11:01:11.421Z,18.20
2023-04-29T11:04:00.084Z,18.17
2023-04-29T11:06:42.201Z,18.13
2023-04-29T11:09:14.671Z,18.10
2023-04-29T11:11:47.385Z,18.10
2023-04-29T11:14:16.387Z,18.09
2023-04-29T11:16:53.749Z,18.07
2023-04-29T11:19:22.081Z,18.06
2023-04-29T11:22:05.956Z,18.07
2023-04-29T11:24:35.650Z,18.06
2023-04-29T11:27:05.878Z,18.08
2023-04-29T11:29:35.240Z,18.06
2023-04-29T11:32:03.238Z,18.03
2023-04-29T11:34:31.057Z,18.02
2023-04-29T11:37:00.954Z,18.03
2023-04-29T11:39:29.531Z,18.05
2023-04-29T11:42:05.285Z,18.04
2023-04-29T11:44:35.656Z,18.03
2023-04-29T11:47:04.620Z,18.03
2023-04-29T11:49:33.685Z,18.03
2023-04-29T11:52:03.409Z,18.03
2023-04-29T11:54:32.214Z,18.02
2023-04-29T11:57:00.143Z,18.03
2023-04-29T11:59:28.345Z,18.02
2023-04-29T12:01:56.987Z,18.00
2023-04-29T12:04:24.853Z,18.01
2023-04-29T12:06:53.710Z,18.01
2023-04-29T12:09:23.076Z,18.01
2023-04-29T12:11:51.291Z,17.98
2023-04-29T12:14:20.385Z,17.96
2023-04-29T12:16:48.514Z,17.96
2023-04-29T12:19:16.496Z,17.96
2023-04-29T12:21:52.392Z,17.96
2023-04-29T12:24:23.186Z,17.95
2023-04-29T12:26:51.385Z,17.93
2023-04-29T12:29:23.138Z,17.93
2023-04-29T12:31:51.796Z,17.93
2023-04-29T12:34:26.485Z,17.94
2023-04-29T12:36:57.910Z,17.94
2023-04-29T12:39:27.399Z,17.95
2023-04-29T12:41:59.134Z,17.96
2023-04-29T12:44:27.492Z,17.96
2023-04-29T12:46:58.255Z,17.97
2023-04-29T12:49:26.578Z,17.99
2023-04-29T12:51:54.676Z,17.98
2023-04-29T12:54:22.344Z,17.97
2023-04-29T12:56:52.231Z,18.00
2023-04-29T12:59:19.937Z,18.02
2023-04-29T13:01:48.057Z,18.03
2023-04-29T13:04:16.348Z,18.03
2023-04-29T13:06:44.997Z,18.03
2023-04-29T13:09:18.122Z,18.03
2023-04-29T13:11:46.984Z,18.03
2023-04-29T13:14:17.006Z,18.03
2023-04-29T13:16:45.309Z,18.03
2023-04-29T13:19:30.574Z,18.06
2023-04-29T13:22:03.056Z,18.09
2023-04-29T13:24:33.526Z,18.11
2023-04-29T13:27:03.548Z,18.15
2023-04-29T13:29:32.923Z,18.21
2023-04-29T13:32:01.129Z,18.25
2023-04-29T13:34:29.026Z,18.29
2023-04-29T13:36:56.981Z,18.32
2023-04-29T13:39:25.101Z,18.36
2023-04-29T13:41:58.186Z,18.40
2023-04-29T13:44:37.665Z,18.43
2023-04-29T13:47:21.187Z,18.46
2023-04-29T13:55:26.347Z,18.53
2023-04-29T14:00:37.826Z,18.58
2023-04-29T14:03:03.812Z,18.59
2023-04-29T14:05:32.273Z,18.62
2023-04-29T14:08:00.218Z,18.64
2023-04-29T14:10:28.101Z,18.66
2023-04-29T14:12:55.901Z,18.68
2023-04-29T14:15:23.694Z,18.70
2023-04-29T14:17:51.465Z,18.70
2023-04-29T14:20:20.879Z,18.73
2023-04-29T14:22:48.696Z,18.74
2023-04-29T14:25:16.664Z,18.74
2023-04-29T14:27:44.799Z,18.75
2023-04-29T14:30:13.358Z,18.75
2023-04-29T14:32:41.346Z,18.77
2023-04-29T14:35:10.421Z,18.78
2023-04-29T14:37:40.057Z,18.76
2023-04-29T14:40:09.499Z,18.75
2023-04-29T14:42:37.480Z,18.75
2023-04-29T14:45:06.831Z,18.77
2023-04-29T14:47:35.577Z,18.78
2023-04-29T14:50:04.195Z,18.81
2023-04-29T14:52:32.116Z,18.81
2023-04-29T14:55:01.155Z,18.82
2023-04-29T14:57:29.912Z,18.82
2023-04-29T14:59:57.947Z,18.84
2023-04-29T15:02:25.738Z,18.85
2023-04-29T15:04:53.829Z,18.86
2023-04-29T15:07:23.285Z,18.87
2023-04-29T15:09:51.569Z,18.87
2023-04-29T15:12:22.333Z,18.88
2023-04-29T15:14:50.424Z,18.86
2023-04-29T15:17:18.567Z,18.88
2023-04-29T15:19:46.948Z,18.91
2023-04-29T15:22:14.981Z,18.92
2023-04-29T15:24:43.192Z,18.93
2023-04-29T15:27:11.249Z,18.93
2023-04-29T15:29:41.552Z,18.96
2023-04-29T15:32:10.359Z,18.96
2023-04-29T15:34:38.760Z,18.99
2023-04-29T15:37:06.482Z,18.99
2023-04-29T15:39:34.388Z,19.01
2023-04-29T15:42:02.366Z,19.00
2023-04-29T15:44:31.078Z,19.01
2023-04-29T15:47:01.270Z,19.02
2023-04-29T15:49:29.039Z,19.04
2023-04-29T15:51:56.809Z,19.05
2023-04-29T15:54:24.981Z,19.07
2023-04-29T15:56:52.776Z,19.07
2023-04-29T15:59:21.050Z,19.09
2023-04-29T16:01:48.947Z,19.10
2023-04-29T16:04:18.993Z,19.11
2023-04-29T16:06:47.402Z,19.13
2023-04-29T16:09:15.529Z,19.14
2023-04-29T16:11:44.411Z,19.14
2023-04-29T16:14:12.727Z,19.15
2023-04-29T16:16:40.988Z,19.15
2023-04-29T16:19:10.136Z,19.14
2023-04-29T16:21:39.833Z,19.14
2023-04-29T16:24:07.832Z,19.16
2023-04-29T16:26:36.826Z,19.16
2023-04-29T16:29:05.270Z,19.18
2023-04-29T16:31:33.453Z,19.20
2023-04-29T16:34:01.696Z,19.22
2023-04-29T16:36:30.207Z,19.23
2023-04-29T16:39:00.357Z,19.24
2023-04-29T16:41:28.216Z,19.24
2023-04-29T16:43:56.666Z,19.25
2023-04-29T16:46:25.544Z,19.25
2023-04-29T16:48:56.844Z,19.25
2023-04-29T16:51:26.284Z,19.24
2023-04-29T16:53:54.231Z,19.23
2023-04-29T16:56:23.291Z,19.23
2023-04-29T16:58:51.135Z,19.23
2023-04-29T17:01:19.770Z,19.22
2023-04-29T17:03:48.126Z,19.22
2023-04-29T17:06:16.757Z,19.22
2023-04-29T17:08:45.532Z,19.21
2023-04-29T17:11:13.330Z,19.21
2023-04-29T17:13:44.770Z,19.22
2023-04-29T17:16:14.029Z,19.22
2023-04-29T17:18:41.881Z,19.20
2023-04-29T17:21:09.848Z,19.19
2023-04-29T17:23:38.372Z,19.21
2023-04-29T17:26:07.410Z,19.20
2023-04-29T17:28:35.134Z,19.18
2023-04-29T17:31:06.101Z,19.18
2023-04-29T17:33:35.431Z,19.15
2023-04-29T17:36:05.307Z,19.14
2023-04-29T17:38:34.042Z,19.14
2023-04-29T17:41:02.120Z,19.13
2023-04-29T17:43:32.423Z,19.09
2023-04-29T17:46:00.426Z,19.07
2023-04-29T17:48:29.478Z,19.02
2023-04-29T17:50:57.122Z,19.05
2023-04-29T17:53:24.911Z,19.15
2023-04-29T17:55:52.620Z,19.23
2023-04-29T17:58:21.369Z,19.30
2023-04-29T18:00:49.130Z,19.37
2023-04-29T18:03:16.897Z,19.44
2023-04-29T18:05:47.323Z,19.51
2023-04-29T18:08:15.104Z,19.50
2023-04-29T18:10:43.027Z,19.47
2023-04-29T18:13:11.576Z,19.50
2023-04-29T18:15:39.893Z,19.52
2023-04-29T18:18:08.003Z,19.55
2023-04-29T18:20:36.264Z,19.57
2023-04-29T18:23:05.268Z,19.58
2023-04-29T18:25:36.495Z,19.61
2023-04-29T18:28:19.400Z,19.63
2023-04-29T18:30:52.454Z,19.66
2023-04-29T18:33:20.371Z,19.68
2023-04-29T18:35:48.234Z,19.70
2023-04-29T18:38:17.567Z,19.73
2023-04-29T18:40:45.569Z,19.76
2023-04-29T18:43:17.023Z,19.77
2023-04-29T18:45:44.954Z,19.79
2023-04-29T18:48:13.060Z,19.80
2023-04-29T18:50:41.341Z,19.81
2023-04-29T18:53:09.789Z,19.80
2023-04-29T18:55:38.959Z,19.82
2023-04-29T18:58:06.549Z,19.82
2023-04-29T19:00:34.096Z,19.83
2023-04-29T19:03:01.878Z,19.84
2023-04-29T19:05:29.727Z,19.85
2023-04-29T19:07:57.554Z,19.86
2023-04-29T19:10:26.081Z,19.87
2023-04-29T19:12:55.392Z,19.88
2023-04-29T19:15:25.196Z,19.88
2023-04-29T19:17:52.981Z,19.89
2023-04-29T19:20:20.917Z,19.90
2023-04-29T19:22:48.714Z,19.90
2023-04-29T19:25:16.415Z,19.91
2023-04-29T19:27:45.651Z,19.92
2023-04-29T19:30:14.949Z,19.91
2023-04-29T19:32:42.881Z,19.91
2023-04-29T19:35:11.860Z,19.94
2023-04-29T19:37:39.549Z,19.97
2023-04-29T19:40:10.134Z,20.00
2023-04-29T19:42:38.122Z,20.02
2023-04-29T19:45:07.597Z,20.04
2023-04-29T19:47:37.200Z,20.05
2023-04-29T19:50:06.411Z,20.07
2023-04-29T19:52:34.120Z,20.08
2023-04-29T19:55:01.944Z,20.10
2023-04-29T19:57:30.523Z,20.10
2023-04-29T19:59:58.368Z,20.11
2023-04-29T20:02:26.451Z,20.12
2023-04-29T20:04:55.981Z,20.11
2023-04-29T20:07:23.680Z,20.14
2023-04-29T20:09:51.678Z,20.13
2023-04-29T20:12:19.590Z,20.10
2023-04-29T20:14:47.330Z,20.06
2023-04-29T20:17:16.401Z,20.09
2023-04-29T20:19:44.470Z,20.06
2023-04-29T20:22:13.964Z,20.04
2023-04-29T20:24:42.306Z,20.02
2023-04-29T20:27:10.161Z,20.01
2023-04-29T20:29:38.301Z,20.01
2023-04-29T20:32:07.142Z,20.00
2023-04-29T20:34:38.525Z,20.00
2023-04-29T20:37:07.125Z,20.01
2023-04-29T20:39:37.125Z,20.03
2023-04-29T20:42:05.379Z,20.03
2023-04-29T20:44:34.122Z,20.02
2023-04-29T20:47:02.144Z,20.02
2023-04-29T20:49:30.575Z,20.02
2023-04-29T20:51:59.720Z,20.02
2023-04-29T20:54:28.410Z,20.03
2023-04-29T20:56:58.383Z,20.02
2023-04-29T20:59:26.554Z,20.02
2023-04-29T21:01:54.465Z,20.01
2023-04-29T21:04:23.198Z,20.01
2023-04-29T21:06:52.755Z,20.02
2023-04-29T21:09:21.475Z,20.02
2023-04-29T21:11:50.132Z,20.01
2023-04-29T21:14:20.074Z,20.02
2023-04-29T21:16:48.134Z,20.02
2023-04-29T21:19:16.824Z,20.04
2023-04-29T21:21:44.803Z,20.02
2023-04-29T21:24:12.943Z,20.02
2023-04-29T21:26:41.121Z,20.01
2023-04-29T21:29:09.114Z,20.01
2023-04-29T21:31:38.616Z,20.02
2023-04-29T21:34:07.073Z,20.01
2023-04-29T21:36:34.724Z,20.01
2023-04-29T21:39:03.149Z,20.01
2023-04-29T21:41:37.467Z,20.01
2023-04-29T21:44:07.676Z,20.00
2023-04-29T21:46:37.283Z,19.99
2023-04-29T21:49:07.489Z,19.99
2023-04-29T21:51:35.759Z,19.99
2023-04-29T21:54:05.909Z,20.02
2023-04-29T21:56:34.361Z,20.17
2023-04-29T21:59:02.945Z,20.29
2023-04-29T22:01:48.602Z,20.32
2023-04-29T22:04:18.865Z,20.29
2023-04-29T22:06:46.612Z,20.24
2023-04-29T22:09:14.441Z,20.15
2023-04-29T22:11:42.415Z,20.05
2023-04-29T22:14:10.055Z,19.96
2023-04-29T22:16:38.013Z,19.88
2023-04-29T22:19:07.607Z,19.79
2023-04-29T22:21:38.126Z,19.69
2023-04-29T22:24:06.374Z,19.60
2023-04-29T22:26:33.965Z,19.52
2023-04-29T22:29:01.581Z,19.46
2023-04-29T22:31:29.301Z,19.39
2023-04-29T22:33:56.931Z,19.34
2023-04-29T22:36:24.566Z,19.28
2023-04-29T22:38:53.554Z,19.23
2023-04-29T22:41:21.656Z,19.18
2023-04-29T22:43:49.286Z,19.13
2023-04-29T22:46:16.989Z,19.08
2023-04-29T22:48:44.618Z,19.03
2023-04-29T22:51:12.310Z,19.00
2023-04-29T22:53:39.981Z,18.95
2023-04-29T22:56:09.167Z,18.90
2023-04-29T22:58:36.859Z,18.87
2023-04-29T23:01:04.510Z,18.83
2023-04-29T23:03:32.142Z,18.79
2023-04-29T23:06:00.343Z,18.76
2023-04-29T23:08:28.261Z,18.74
2023-04-29T23:10:56.016Z,18.71
2023-04-29T23:13:25.060Z,18.68
2023-04-29T23:15:55.803Z,18.66
2023-04-29T23:18:23.512Z,18.63
2023-04-29T23:20:51.266Z,18.61
2023-04-29T23:23:18.912Z,18.58
2023-04-29T23:25:46.753Z,18.55
2023-04-29T23:28:14.491Z,18.54
2023-04-29T23:30:43.638Z,18.53
2023-04-29T23:33:11.284Z,18.51
2023-04-29T23:35:38.905Z,18.49
2023-04-29T23:38:06.564Z,18.46
2023-04-29T23:40:34.194Z,18.44
2023-04-29T23:43:02.052Z,18.43
2023-04-29T23:45:29.720Z,18.41
2023-04-29T23:47:58.823Z,18.40
2023-04-29T23:50:26.617Z,18.37
2023-04-29T23:52:54.310Z,18.36
2023-04-29T23:55:21.898Z,18.34
2023-04-29T23:57:49.561Z,18.30
